createdAt,value
2022-11-03T00:02:13.065Z,11.40
2022-11-03T00:04:40.423Z,11.40
2022-11-03T00:07:07.415Z,11.30
2022-11-03T00:09:34.529Z,11.30
2022-11-03T00:12:03.029Z,11.30
2022-11-03T00:14:30.081Z,11.30
2022-11-03T00:16:57.293Z,11.20
2022-11-03T00:19:24.269Z,11.20
2022-11-03T00:21:52.604Z,11.20
2022-11-03T00:24:19.544Z,11.20
2022-11-03T00:26:46.768Z,11.20
2022-11-03T00:29:15.478Z,11.10
2022-11-03T00:31:45.109Z,11.10
2022-11-03T00:34:12.887Z,11.10
2022-11-03T00:36:44.720Z,11.10
2022-11-03T00:39:13.086Z,11.10
2022-11-03T00:41:40.519Z,11.00
2022-11-03T00:44:10.283Z,11.00
2022-11-03T00:46:37.868Z,11.00
2022-11-03T00:49:06.087Z,11.00
2022-11-03T00:51:37.252Z,10.90
2022-11-03T00:54:07.247Z,10.90
2022-11-03T00:56:41.939Z,10.90
2022-11-03T00:59:10.131Z,10.90
2022-11-03T01:01:46.319Z,10.80
2022-11-03T01:04:34.640Z,10.80
2022-11-03T01:07:04.599Z,10.80
2022-11-03T01:09:40.317Z,10.70
2022-11-03T01:12:19.061Z,10.70
2022-11-03T01:14:53.060Z,10.70
2022-11-03T01:17:23.847Z,10.70
2022-11-03T01:19:51.720Z,10.60
2022-11-03T01:22:20.222Z,10.60
2022-11-03T01:24:47.639Z,10.60
2022-11-03T01:27:18.781Z,10.50
2022-11-03T01:29:46.027Z,10.50
2022-11-03T01:32:13.404Z,10.50
2022-11-03T01:34:40.542Z,10.40
2022-11-03T01:37:08.043Z,10.40
2022-11-03T01:39:35.409Z,10.40
2022-11-03T01:42:03.244Z,10.30
2022-11-03T01:44:35.150Z,10.30
2022-11-03T01:47:17.744Z,10.30
2022-11-03T01:50:03.277Z,10.30
2022-11-03T01:52:56.308Z,10.20
2022-11-03T01:55:31.168Z,10.20
2022-11-03T01:58:07.535Z,10.10
2022-11-03T02:00:36.118Z,10.10
2022-11-03T02:03:05.878Z,10.00
2022-11-03T02:05:33.491Z,10.00
2022-11-03T02:08:26.080Z,10.00
2022-11-03T02:10:53.573Z,9.90
2022-11-03T02:13:27.375Z,9.90
2022-11-03T02:15:59.313Z,9.90
2022-11-03T02:18:34.474Z,9.80
2022-11-03T02:21:43.695Z,9.80
2022-11-03T02:24:32.640Z,9.80
2022-11-03T02:27:00.124Z,9.80
2022-11-03T02:29:27.303Z,9.70
2022-11-03T02:32:07.536Z,9.70
2022-11-03T02:34:49.165Z,9.70
2022-11-03T02:37:23.349Z,9.70
2022-11-03T02:39:58.763Z,9.60
2022-11-03T02:42:27.167Z,9.50
2022-11-03T02:45:00.222Z,9.50
2022-11-03T02:47:31.545Z,9.50
2022-11-03T02:49:58.748Z,9.40
2022-11-03T02:52:37.075Z,9.40
2022-11-03T02:55:11.171Z,9.40
2022-11-03T02:58:12.824Z,9.40
2022-11-03T03:00:54.028Z,9.30
2022-11-03T03:03:40.368Z,9.30
2022-11-03T03:06:22.105Z,9.20
2022-11-03T03:09:00.388Z,9.20
2022-11-03T03:11:37.980Z,9.10
2022-11-03T03:14:15.638Z,9.10
2022-11-03T03:17:01.002Z,9.10
2022-11-03T03:19:43.467Z,9.10
2022-11-03T03:22:30.134Z,9.00
2022-11-03T03:25:13.593Z,9.00
2022-11-03T03:27:48.911Z,8.90
2022-11-03T03:30:18.309Z,9.00
2022-11-03T03:32:49.570Z,8.90
2022-11-03T03:35:26.563Z,8.90
2022-11-03T03:38:00.266Z,8.80
2022-11-03T03:40:36.373Z,8.80
2022-11-03T03:43:08.468Z,8.80
2022-11-03T03:45:38.041Z,8.80
2022-11-03T03:48:07.112Z,8.70
2022-11-03T03:50:39.804Z,8.70
2022-11-03T03:53:12.284Z,8.70
2022-11-03T03:55:46.682Z,8.60
2022-11-03T03:58:15.656Z,8.60
2022-11-03T04:00:44.056Z,8.50
2022-11-03T04:03:17.759Z,8.50
2022-11-03T04:05:46.144Z,8.50
2022-11-03T04:08:15.492Z,8.50
2022-11-03T04:11:03.564Z,8.40
2022-11-03T04:13:49.703Z,8.40
2022-11-03T04:16:36.223Z,8.30
2022-11-03T04:19:21.958Z,8.30
2022-11-03T04:22:08.348Z,8.20
2022-11-03T04:24:35.355Z,8.20
2022-11-03T04:27:28.700Z,8.20
2022-11-03T04:30:09.891Z,8.20
2022-11-03T04:32:37.800Z,8.10
2022-11-03T04:35:22.016Z,8.10
2022-11-03T04:37:59.057Z,8.00
2022-11-03T04:40:27.343Z,8.00
2022-11-03T04:42:55.945Z,8.00
2022-11-03T04:45:32.354Z,7.90
2022-11-03T04:48:12.110Z,7.90
2022-11-03T04:50:46.622Z,7.80
2022-11-03T04:53:18.699Z,7.80
2022-11-03T04:55:51.372Z,7.80
2022-11-03T04:58:21.501Z,7.70
2022-11-03T05:00:53.789Z,7.70
2022-11-03T05:03:24.150Z,7.70
2022-11-03T05:05:52.068Z,7.60
2022-11-03T05:08:20.865Z,7.60
2022-11-03T05:10:49.631Z,7.50
2022-11-03T05:13:27.517Z,7.50
2022-11-03T05:16:04.205Z,7.50
2022-11-03T05:18:43.068Z,7.50
2022-11-03T05:21:16.614Z,7.50
2022-11-03T05:23:52.311Z,7.40
2022-11-03T05:26:30.913Z,7.40
2022-11-03T05:29:10.679Z,7.40
2022-11-03T05:31:42.120Z,7.40
2022-11-03T05:34:37.204Z,7.30
2022-11-03T05:37:07.423Z,7.30
2022-11-03T05:39:40.512Z,7.20
2022-11-03T05:42:42.409Z,7.20
2022-11-03T05:45:32.487Z,7.20
2022-11-03T05:48:03.750Z,7.10
2022-11-03T05:50:35.230Z,7.10
2022-11-03T05:53:38.522Z,7.10
2022-11-03T05:56:07.375Z,7.00
2022-11-03T05:58:40.797Z,7.00
2022-11-03T06:01:19.775Z,6.90
2022-11-03T06:03:48.083Z,7.00
2022-11-03T06:06:38.353Z,7.00
2022-11-03T06:09:21.008Z,7.00
2022-11-03T06:11:50.291Z,7.00
2022-11-03T06:14:24.837Z,7.00
2022-11-03T06:17:12.101Z,7.00
2022-11-03T06:19:44.631Z,7.00
2022-11-03T06:22:26.217Z,7.00
2022-11-03T06:25:01.189Z,7.00
2022-11-03T06:27:34.215Z,7.00
2022-11-03T06:30:20.495Z,7.00
2022-11-03T06:32:47.693Z,7.00
2022-11-03T06:35:15.462Z,7.00
2022-11-03T06:37:43.630Z,7.00
2022-11-03T06:40:10.526Z,7.10
2022-11-03T06:42:39.927Z,7.10
2022-11-03T06:45:26.421Z,7.20
2022-11-03T06:47:54.692Z,7.20
2022-11-03T06:50:34.509Z,7.30
2022-11-03T06:53:04.610Z,7.30
2022-11-03T06:55:38.545Z,7.40
2022-11-03T06:58:23.325Z,7.40
2022-11-03T07:00:51.641Z,7.40
2022-11-03T07:03:37.763Z,7.50
2022-11-03T07:06:10.786Z,7.60
2022-11-03T07:08:45.807Z,7.60
2022-11-03T07:11:34.890Z,7.70
2022-11-03T07:14:21.850Z,7.80
2022-11-03T07:16:54.866Z,7.90
2022-11-03T07:19:44.929Z,8.00
2022-11-03T07:22:25.996Z,8.10
2022-11-03T07:24:59.698Z,8.10
2022-11-03T07:27:31.344Z,8.20
2022-11-03T07:30:17.952Z,8.30
2022-11-03T07:32:45.567Z,8.40
2022-11-03T07:35:25.547Z,8.50
2022-11-03T07:37:53.858Z,8.70
2022-11-03T07:40:27.659Z,8.70
2022-11-03T07:43:02.126Z,8.80
2022-11-03T07:45:48.031Z,8.90
2022-11-03T07:48:21.075Z,9.00
2022-11-03T07:50:51.989Z,9.10
2022-11-03T07:53:41.647Z,9.30
2022-11-03T07:56:29.351Z,9.40
2022-11-03T07:59:12.030Z,9.50
2022-11-03T08:01:45.372Z,9.70
2022-11-03T08:04:25.800Z,9.90
2022-11-03T08:06:53.244Z,10.00
2022-11-03T08:09:21.128Z,10.10
2022-11-03T08:11:49.330Z,10.20
2022-11-03T08:14:16.883Z,10.30
2022-11-03T08:16:44.267Z,10.50
2022-11-03T08:19:11.634Z,10.60
2022-11-03T08:21:38.836Z,10.80
2022-11-03T08:24:07.310Z,11.00
2022-11-03T08:26:34.554Z,11.10
2022-11-03T08:29:02.358Z,11.30
2022-11-03T08:31:29.615Z,11.50
2022-11-03T08:33:56.600Z,11.80
2022-11-03T08:36:23.834Z,11.90
2022-11-03T08:38:50.998Z,12.00
2022-11-03T08:41:18.440Z,12.20
2022-11-03T08:43:45.552Z,12.30
2022-11-03T08:46:17.799Z,12.40
2022-11-03T08:48:46.324Z,12.60
2022-11-03T08:51:15.539Z,12.70
2022-11-03T08:53:43.308Z,12.90
2022-11-03T08:56:13.812Z,13.00
2022-11-03T08:58:44.191Z,13.30
2022-11-03T09:01:11.684Z,13.40
2022-11-03T09:03:39.698Z,13.50
2022-11-03T09:06:08.046Z,13.70
2022-11-03T09:11:22.414Z,14.10
2022-11-03T09:13:49.337Z,14.20
2022-11-03T09:16:17.108Z,14.40
2022-11-03T09:18:45.399Z,14.60
2022-11-03T09:21:14.705Z,14.80
2022-11-03T09:23:41.781Z,15.10
2022-11-03T09:26:09.217Z,15.10
2022-11-03T09:28:36.157Z,15.30
2022-11-03T09:31:03.362Z,15.50
2022-11-03T09:33:30.565Z,15.70
2022-11-03T09:35:58.131Z,15.60
2022-11-03T09:38:25.112Z,15.70
2022-11-03T09:40:52.509Z,15.80
2022-11-03T09:43:19.665Z,15.90
2022-11-03T09:45:46.917Z,16.20
2022-11-03T09:48:14.247Z,16.00
2022-11-03T09:50:41.916Z,16.00
2022-11-03T09:53:12.943Z,16.30
2022-11-03T09:55:40.422Z,16.30
2022-11-03T09:58:17.335Z,16.40
2022-11-03T10:00:46.027Z,16.30
2022-11-03T10:03:20.756Z,16.50
2022-11-03T10:05:48.615Z,16.60
2022-11-03T10:08:35.272Z,16.80
2022-11-03T10:11:06.404Z,16.90
2022-11-03T10:14:03.576Z,16.80
2022-11-03T10:16:30.894Z,16.80
2022-11-03T10:18:58.120Z,17.00
2022-11-03T10:21:34.095Z,16.90
2022-11-03T10:24:03.283Z,17.10
2022-11-03T10:26:52.256Z,17.10
2022-11-03T10:29:25.766Z,17.20
2022-11-03T10:31:57.190Z,17.10
2022-11-03T10:34:36.452Z,17.20
2022-11-03T10:37:23.122Z,17.20
2022-11-03T10:39:57.840Z,17.30
2022-11-03T10:42:34.949Z,17.20
2022-11-03T10:45:20.357Z,17.30
2022-11-03T10:48:09.094Z,17.30
2022-11-03T10:50:38.804Z,17.30
2022-11-03T10:53:17.098Z,17.30
2022-11-03T10:55:44.981Z,17.20
2022-11-03T10:58:12.451Z,17.30
2022-11-03T11:00:42.733Z,17.30
2022-11-03T11:03:16.370Z,17.30
2022-11-03T11:05:48.537Z,17.30
2022-11-03T11:08:23.324Z,17.30
2022-11-03T11:10:50.747Z,17.30
2022-11-03T11:13:26.699Z,17.40
2022-11-03T11:16:02.729Z,17.50
2022-11-03T11:18:30.008Z,17.40
2022-11-03T11:21:05.504Z,17.40
2022-11-03T11:23:35.713Z,17.50
2022-11-03T11:26:31.807Z,17.50
2022-11-03T11:29:15.507Z,17.50
2022-11-03T11:31:46.161Z,17.50
2022-11-03T11:34:17.322Z,17.50
2022-11-03T11:36:47.432Z,17.40
2022-11-03T11:39:20.501Z,17.40
2022-11-03T11:42:20.199Z,17.40
2022-11-03T11:45:06.649Z,17.50
2022-11-03T11:47:44.175Z,17.50
2022-11-03T11:50:22.433Z,17.60
2022-11-03T11:53:12.617Z,17.60
2022-11-03T11:56:10.550Z,17.40
2022-11-03T11:58:50.728Z,17.30
2022-11-03T12:01:24.393Z,17.30
2022-11-03T12:03:58.371Z,17.30
2022-11-03T12:06:37.380Z,17.10
2022-11-03T12:09:19.596Z,16.90
2022-11-03T12:12:03.516Z,16.90
2022-11-03T12:14:38.917Z,16.90
2022-11-03T12:17:19.035Z,16.80
2022-11-03T12:19:49.482Z,16.90
2022-11-03T12:22:28.961Z,16.70
2022-11-03T12:25:02.944Z,16.70
2022-11-03T12:27:30.284Z,16.80
2022-11-03T12:30:00.485Z,16.50
2022-11-03T12:32:35.995Z,16.40
2022-11-03T12:35:06.713Z,16.50
2022-11-03T12:37:33.964Z,16.50
2022-11-03T12:40:00.950Z,16.40
2022-11-03T12:42:28.292Z,16.30
2022-11-03T12:44:55.926Z,16.30
2022-11-03T12:47:23.293Z,16.20
2022-11-03T12:49:50.603Z,16.20
2022-11-03T12:52:17.537Z,16.40
2022-11-03T12:54:44.727Z,16.30
2022-11-03T12:57:11.754Z,16.20
2022-11-03T12:59:38.967Z,16.30
2022-11-03T13:02:06.159Z,16.30
2022-11-03T13:04:33.399Z,16.40
2022-11-03T13:07:00.399Z,16.30
2022-11-03T13:09:27.773Z,16.40
2022-11-03T13:12:13.399Z,16.60
2022-11-03T13:14:44.512Z,16.60
2022-11-03T13:17:14.941Z,16.70
2022-11-03T13:19:42.211Z,17.00
2022-11-03T13:22:09.243Z,16.90
2022-11-03T13:24:36.571Z,16.60
2022-11-03T13:27:03.616Z,16.30
2022-11-03T13:29:35.190Z,16.30
2022-11-03T13:32:04.665Z,16.20
2022-11-03T13:34:31.862Z,16.30
2022-11-03T13:36:58.882Z,16.30
2022-11-03T13:39:26.649Z,16.20
2022-11-03T13:41:53.704Z,16.00
2022-11-03T13:44:21.270Z,16.00
2022-11-03T13:46:48.323Z,16.00
2022-11-03T13:52:03.593Z,15.80
2022-11-03T14:00:08.031Z,15.50
2022-11-03T14:05:31.955Z,15.40
2022-11-03T14:07:58.896Z,15.40
2022-11-03T14:10:26.448Z,15.20
2022-11-03T14:12:53.359Z,15.30
2022-11-03T14:15:20.732Z,15.30
2022-11-03T14:17:47.753Z,15.30
2022-11-03T14:20:15.082Z,15.30
2022-11-03T14:22:43.219Z,15.20
2022-11-03T14:25:10.468Z,15.00
2022-11-03T14:27:37.413Z,14.90
2022-11-03T14:30:05.650Z,14.80
2022-11-03T14:32:32.605Z,14.70
2022-11-03T14:34:59.965Z,14.60
2022-11-03T14:37:28.595Z,14.60
2022-11-03T14:39:56.165Z,14.60
2022-11-03T14:42:23.294Z,14.50
2022-11-03T14:44:50.659Z,14.50
2022-11-03T14:47:22.907Z,14.40
2022-11-03T14:49:50.231Z,14.30
2022-11-03T14:52:17.577Z,14.30
2022-11-03T14:54:44.880Z,14.20
2022-11-03T14:57:11.945Z,14.00
2022-11-03T14:59:39.323Z,13.90
2022-11-03T15:02:07.177Z,13.90
2022-11-03T15:04:34.697Z,13.90
2022-11-03T15:07:01.737Z,13.80
2022-11-03T15:09:29.066Z,13.70
2022-11-03T15:11:56.543Z,13.60
2022-11-03T15:14:23.611Z,13.50
2022-11-03T15:16:50.529Z,13.50
2022-11-03T15:19:17.994Z,13.50
2022-11-03T15:21:44.934Z,13.50
2022-11-03T15:26:59.384Z,13.40
2022-11-03T15:29:26.592Z,13.40
2022-11-03T15:31:53.535Z,13.30
2022-11-03T15:34:20.860Z,13.30
2022-11-03T15:36:47.794Z,13.10
2022-11-03T15:39:15.964Z,13.00
2022-11-03T15:41:43.021Z,13.10
2022-11-03T15:44:10.243Z,13.00
2022-11-03T15:46:37.543Z,12.90
2022-11-03T15:49:05.107Z,12.80
2022-11-03T15:51:32.195Z,12.60
2022-11-03T15:53:59.657Z,12.50
2022-11-03T15:56:27.728Z,12.40
2022-11-03T15:58:55.158Z,12.30
2022-11-03T16:01:22.543Z,12.30
2022-11-03T16:03:50.024Z,12.50
2022-11-03T16:06:17.093Z,12.50
2022-11-03T16:08:45.011Z,12.80
2022-11-03T16:11:12.064Z,12.50
2022-11-03T16:13:39.613Z,12.30
2022-11-03T16:16:07.406Z,12.30
2022-11-03T16:18:34.888Z,12.30
2022-11-03T16:21:02.382Z,12.40
2022-11-03T16:23:29.383Z,12.40
2022-11-03T16:25:56.832Z,12.70
2022-11-03T16:28:24.188Z,12.80
2022-11-03T16:30:54.479Z,13.00
2022-11-03T16:33:22.796Z,13.00
2022-11-03T16:35:49.992Z,12.40
2022-11-03T16:38:17.137Z,12.20
2022-11-03T16:40:44.421Z,11.90
2022-11-03T16:43:12.173Z,11.80
2022-11-03T16:45:39.386Z,11.70
2022-11-03T16:48:07.722Z,11.90
2022-11-03T16:50:35.412Z,11.70
2022-11-03T16:53:04.334Z,11.70
2022-11-03T16:55:31.832Z,11.70
2022-11-03T16:57:58.777Z,11.70
2022-11-03T17:00:26.215Z,11.70
2022-11-03T17:02:53.263Z,11.80
2022-11-03T17:05:21.586Z,11.90
2022-11-03T17:07:53.755Z,11.80
2022-11-03T17:10:23.138Z,11.90
2022-11-03T17:12:50.744Z,11.70
2022-11-03T17:15:17.988Z,11.70
2022-11-03T17:17:45.293Z,11.50
2022-11-03T17:20:13.443Z,11.50
2022-11-03T17:22:40.491Z,11.40
2022-11-03T17:25:11.663Z,11.40
2022-11-03T17:27:45.952Z,11.40
2022-11-03T17:30:26.593Z,11.50
2022-11-03T17:32:59.418Z,11.50
2022-11-03T17:35:39.587Z,11.60
2022-11-03T17:38:15.676Z,11.80
2022-11-03T17:40:46.452Z,12.00
2022-11-03T17:43:26.945Z,12.00
2022-11-03T17:45:54.727Z,12.20
2022-11-03T17:48:23.232Z,12.30
2022-11-03T17:50:55.320Z,12.30
2022-11-03T17:53:27.018Z,12.30
2022-11-03T17:56:28.029Z,12.20
2022-11-03T17:58:46.976Z,11.90
2022-11-03T18:01:25.824Z,11.70
2022-11-03T18:03:53.516Z,11.50
2022-11-03T18:06:21.959Z,11.40
2022-11-03T18:08:49.766Z,11.50
2022-11-03T18:11:48.854Z,11.70
2022-11-03T18:14:16.626Z,11.90
2022-11-03T18:16:44.461Z,12.00
2022-11-03T18:19:14.190Z,12.10
2022-11-03T18:21:41.747Z,12.10
2022-11-03T18:24:13.946Z,11.90
2022-11-03T18:26:41.943Z,11.80
2022-11-03T18:29:09.562Z,11.90
2022-11-03T18:31:50.866Z,11.90
2022-11-03T18:34:26.213Z,12.00
2022-11-03T18:36:54.496Z,11.70
2022-11-03T18:39:28.097Z,11.50
2022-11-03T18:41:56.149Z,11.30
2022-11-03T18:44:30.513Z,11.30
2022-11-03T18:46:58.626Z,11.20
2022-11-03T18:49:27.376Z,11.00
2022-11-03T18:52:02.830Z,11.00
2022-11-03T18:54:33.988Z,10.90
2022-11-03T18:57:02.931Z,10.80
2022-11-03T18:59:39.163Z,10.80
2022-11-03T19:02:23.972Z,10.80
2022-11-03T19:04:51.364Z,10.80
2022-11-03T19:07:29.088Z,10.90
2022-11-03T19:09:56.564Z,10.90
2022-11-03T19:12:23.883Z,10.70
2022-11-03T19:14:51.228Z,10.70
2022-11-03T19:17:23.508Z,10.70
2022-11-03T19:19:53.594Z,10.70
2022-11-03T19:22:23.341Z,10.70
2022-11-03T19:24:50.439Z,10.60
2022-11-03T19:27:30.050Z,10.70
2022-11-03T19:30:00.308Z,10.60
2022-11-03T19:32:40.310Z,10.50
2022-11-03T19:35:23.688Z,10.50
2022-11-03T19:38:04.653Z,10.50
2022-11-03T19:40:32.908Z,10.60
2022-11-03T19:43:00.304Z,10.50
2022-11-03T19:45:29.300Z,10.40
2022-11-03T19:50:49.187Z,10.40
2022-11-03T19:53:28.396Z,10.30
2022-11-03T19:55:56.761Z,10.30
2022-11-03T19:58:27.757Z,10.30
2022-11-03T20:00:55.544Z,10.30
2022-11-03T20:03:24.329Z,10.30
2022-11-03T20:05:54.884Z,10.30
2022-11-03T20:08:25.722Z,10.30
2022-11-03T20:10:53.431Z,10.40
2022-11-03T20:13:32.265Z,10.30
2022-11-03T20:16:01.375Z,10.20
2022-11-03T20:18:29.062Z,10.20
2022-11-03T20:20:56.439Z,10.20
2022-11-03T20:23:30.234Z,10.30
2022-11-03T20:25:58.449Z,10.30
2022-11-03T20:28:32.233Z,10.30
2022-11-03T20:31:04.391Z,10.60
2022-11-03T20:33:31.822Z,10.50
2022-11-03T20:35:58.938Z,10.40
2022-11-03T20:38:28.760Z,10.50
2022-11-03T20:41:05.373Z,10.30
2022-11-03T20:43:39.077Z,10.20
2022-11-03T20:46:33.607Z,10.10
2022-11-03T20:49:01.140Z,10.20
2022-11-03T20:51:48.215Z,10.30
2022-11-03T20:54:19.929Z,10.40
2022-11-03T20:56:47.680Z,10.30
2022-11-03T20:59:17.785Z,10.30
2022-11-03T21:01:45.432Z,10.30
2022-11-03T21:04:19.008Z,10.30
2022-11-03T21:06:46.842Z,10.50
2022-11-03T21:09:18.275Z,10.50
2022-11-03T21:11:46.977Z,10.40
2022-11-03T21:14:18.753Z,10.40
2022-11-03T21:17:05.303Z,10.40
2022-11-03T21:19:51.765Z,10.20
2022-11-03T21:22:54.674Z,10.20
2022-11-03T21:25:23.967Z,10.10
2022-11-03T21:27:55.119Z,10.10
2022-11-03T21:30:23.344Z,10.10
2022-11-03T21:32:51.854Z,10.30
2022-11-03T21:35:22.100Z,10.40
2022-11-03T21:37:49.096Z,10.50
2022-11-03T21:40:16.624Z,10.80
2022-11-03T21:43:05.051Z,10.90
2022-11-03T21:45:33.156Z,11.00
2022-11-03T21:48:19.299Z,11.10
2022-11-03T21:50:47.246Z,11.00
2022-11-03T21:53:14.483Z,10.70
2022-11-03T21:55:41.841Z,10.50
2022-11-03T21:58:08.963Z,10.30
2022-11-03T22:01:06.457Z,10.20
2022-11-03T22:03:35.590Z,9.90
2022-11-03T22:06:07.927Z,9.80
2022-11-03T22:08:36.163Z,10.00
2022-11-03T22:11:22.181Z,10.30
2022-11-03T22:13:58.951Z,10.30
2022-11-03T22:16:36.967Z,10.50
2022-11-03T22:19:23.862Z,10.70
2022-11-03T22:22:10.545Z,10.60
2022-11-03T22:24:57.388Z,10.40
2022-11-03T22:27:26.658Z,10.50
2022-11-03T22:30:12.193Z,10.70
2022-11-03T22:32:39.964Z,10.70
2022-11-03T22:35:27.970Z,10.80
2022-11-03T22:38:41.798Z,10.80
2022-11-03T22:41:27.596Z,10.80
2022-11-03T22:44:13.608Z,10.60
2022-11-03T22:46:40.601Z,10.30
2022-11-03T22:49:07.819Z,10.00
2022-11-03T22:51:34.892Z,9.80
2022-11-03T22:54:10.101Z,9.90
2022-11-03T22:56:41.221Z,10.20
2022-11-03T22:59:09.269Z,10.50
2022-11-03T23:01:36.708Z,10.50
2022-11-03T23:04:07.299Z,10.50
2022-11-03T23:06:38.949Z,10.20
2022-11-03T23:09:07.707Z,10.00
2022-11-03T23:11:35.163Z,10.00
2022-11-03T23:14:08.793Z,10.10
2022-11-03T23:16:43.213Z,10.20
2022-11-03T23:19:31.932Z,9.90
2022-11-03T23:21:59.963Z,9.90
2022-11-03T23:24:47.819Z,10.00
2022-11-03T23:27:15.095Z,10.20
2022-11-03T23:29:42.148Z,10.10
2022-11-03T23:32:09.486Z,10.20
2022-11-03T23:34:36.388Z,10.20
2022-11-03T23:37:03.765Z,10.20
2022-11-03T23:39:30.932Z,9.90
2022-11-03T23:41:57.887Z,10.20
2022-11-03T23:44:25.161Z,10.30
2022-11-03T23:47:10.800Z,10.30
2022-11-03T23:49:37.992Z,9.80
2022-11-03T23:52:04.915Z,9.60
2022-11-03T23:54:32.273Z,9.50
2022-11-03T23:57:17.620Z,9.50
